createdAt,value
2018-03-16T00:01:15.486Z,4.51
2018-03-16T00:03:43.869Z,4.48
2018-03-16T00:06:12.216Z,4.51
2018-03-16T00:08:40.584Z,4.49
2018-03-16T00:11:09.054Z,4.54
2018-03-16T00:13:37.465Z,4.59
2018-03-16T00:16:05.819Z,4.56
2018-03-16T00:18:34.216Z,4.58
2018-03-16T00:21:02.572Z,4.64
2018-03-16T00:23:30.988Z,4.65
2018-03-16T00:25:59.343Z,4.70
2018-03-16T00:28:27.727Z,4.73
2018-03-16T00:30:56.413Z,4.71
2018-03-16T00:33:24.810Z,4.76
2018-03-16T00:35:53.159Z,4.80
2018-03-16T00:38:21.528Z,4.78
2018-03-16T00:40:49.960Z,4.81
2018-03-16T00:43:18.352Z,4.84
2018-03-16T00:45:46.747Z,4.81
2018-03-16T00:48:15.097Z,4.83
2018-03-16T00:50:43.460Z,4.85
2018-03-16T00:53:11.899Z,4.83
2018-03-16T00:55:40.260Z,4.90
2018-03-16T00:58:08.682Z,4.87
2018-03-16T01:00:37.572Z,4.87
2018-03-16T01:03:06.086Z,4.81
2018-03-16T01:05:34.497Z,4.81
2018-03-16T01:08:02.848Z,4.81
2018-03-16T01:10:31.258Z,4.83
2018-03-16T01:12:59.602Z,4.82
2018-03-16T01:15:27.981Z,4.82
2018-03-16T01:17:56.319Z,4.83
2018-03-16T01:20:24.689Z,4.85
2018-03-16T01:22:53.034Z,4.85
2018-03-16T01:25:21.399Z,4.87
2018-03-16T01:27:49.814Z,4.91
2018-03-16T01:30:18.180Z,4.85
2018-03-16T01:32:46.737Z,4.88
2018-03-16T01:35:15.064Z,4.83
2018-03-16T01:37:43.422Z,4.85
2018-03-16T01:40:12.027Z,4.83
2018-03-16T01:42:40.578Z,4.85
2018-03-16T01:45:08.974Z,4.80
2018-03-16T01:47:37.328Z,4.83
2018-03-16T01:50:05.753Z,4.75
2018-03-16T01:52:34.136Z,4.82
2018-03-16T01:55:02.492Z,4.81
2018-03-16T01:57:31.034Z,4.83
2018-03-16T01:59:59.405Z,4.85
2018-03-16T02:02:27.820Z,4.81
2018-03-16T02:04:56.199Z,4.81
2018-03-16T02:07:24.583Z,4.82
2018-03-16T02:09:52.927Z,4.83
2018-03-16T02:12:21.368Z,4.81
2018-03-16T02:14:49.722Z,4.83
2018-03-16T02:17:18.193Z,4.81
2018-03-16T02:19:46.552Z,4.80
2018-03-16T02:22:14.921Z,4.75
2018-03-16T02:24:43.276Z,4.74
2018-03-16T02:27:11.848Z,4.72
2018-03-16T02:29:40.209Z,4.70
2018-03-16T02:32:08.598Z,4.70
2018-03-16T02:34:37.124Z,4.69
2018-03-16T02:37:05.522Z,4.71
2018-03-16T02:39:33.869Z,4.66
2018-03-16T02:42:02.290Z,4.67
2018-03-16T02:44:30.697Z,4.60
2018-03-16T02:46:59.036Z,4.62
2018-03-16T02:49:27.420Z,4.64
2018-03-16T02:51:55.850Z,4.65
2018-03-16T02:54:24.561Z,4.63
2018-03-16T02:56:52.953Z,4.65
2018-03-16T02:59:21.362Z,4.62
2018-03-16T03:01:49.702Z,4.59
2018-03-16T03:04:18.088Z,4.62
2018-03-16T03:06:46.448Z,4.63
2018-03-16T03:09:14.823Z,4.69
2018-03-16T03:11:43.180Z,4.61
2018-03-16T03:14:11.542Z,4.67
2018-03-16T03:16:39.906Z,4.67
2018-03-16T03:19:08.268Z,4.65
2018-03-16T03:21:36.626Z,4.66
2018-03-16T03:24:05.055Z,4.67
2018-03-16T03:26:33.963Z,4.67
2018-03-16T03:29:02.342Z,4.67
2018-03-16T03:31:30.881Z,4.67
2018-03-16T03:33:59.304Z,4.69
2018-03-16T03:36:27.684Z,4.73
2018-03-16T03:38:56.140Z,4.71
2018-03-16T03:41:24.526Z,4.70
2018-03-16T03:43:52.880Z,4.71
2018-03-16T03:46:21.239Z,4.72
2018-03-16T03:48:49.576Z,4.77
2018-03-16T03:51:17.958Z,4.81
2018-03-16T03:53:46.311Z,4.80
2018-03-16T03:56:14.680Z,4.72
2018-03-16T03:58:43.109Z,4.72
2018-03-16T04:01:11.475Z,4.69
2018-03-16T04:03:39.835Z,4.74
2018-03-16T04:06:08.230Z,4.72
2018-03-16T04:08:36.611Z,4.74
2018-03-16T04:11:04.982Z,4.69
2018-03-16T04:13:33.333Z,4.72
2018-03-16T04:16:01.724Z,4.62
2018-03-16T04:18:30.123Z,4.57
2018-03-16T04:20:58.494Z,4.60
2018-03-16T04:23:26.836Z,4.61
2018-03-16T04:25:55.218Z,4.65
2018-03-16T04:28:23.572Z,4.59
2018-03-16T04:30:51.924Z,4.52
2018-03-16T04:33:20.279Z,4.52
2018-03-16T04:35:48.648Z,4.53
2018-03-16T04:38:17.004Z,4.57
2018-03-16T04:40:45.373Z,4.54
2018-03-16T04:43:13.735Z,4.47
2018-03-16T04:45:42.094Z,4.49
2018-03-16T04:48:10.477Z,4.45
2018-03-16T04:50:38.836Z,4.43
2018-03-16T04:53:07.225Z,4.50
2018-03-16T04:55:35.699Z,4.47
2018-03-16T04:58:04.103Z,4.46
2018-03-16T05:00:32.467Z,4.47
2018-03-16T05:03:00.864Z,4.41
2018-03-16T05:05:29.246Z,4.33
2018-03-16T05:07:57.716Z,4.38
2018-03-16T05:10:26.156Z,4.34
2018-03-16T05:12:54.509Z,4.34
2018-03-16T05:15:22.878Z,4.32
2018-03-16T05:17:51.236Z,4.36
2018-03-16T05:20:19.632Z,4.25
2018-03-16T05:22:48.104Z,4.27
2018-03-16T05:25:16.459Z,4.21
2018-03-16T05:27:44.978Z,4.15
2018-03-16T05:30:13.328Z,4.16
2018-03-16T05:32:41.680Z,4.07
2018-03-16T05:35:10.281Z,4.20
2018-03-16T05:37:38.634Z,4.13
2018-03-16T05:40:07.667Z,4.18
2018-03-16T05:42:36.536Z,4.38
2018-03-16T05:45:05.031Z,5.02
2018-03-16T05:47:33.468Z,4.53
2018-03-16T05:50:01.845Z,4.51
2018-03-16T05:52:30.267Z,4.38
2018-03-16T05:54:58.640Z,4.55
2018-03-16T05:57:27.033Z,4.43
2018-03-16T05:59:55.420Z,4.40
2018-03-16T06:02:23.803Z,4.54
2018-03-16T06:04:52.172Z,4.44
2018-03-16T06:07:20.526Z,4.68
2018-03-16T06:09:48.887Z,4.80
2018-03-16T06:12:17.245Z,4.64
2018-03-16T06:14:45.848Z,4.38
2018-03-16T06:17:14.297Z,4.26
2018-03-16T06:19:42.672Z,4.17
2018-03-16T06:22:11.063Z,4.13
2018-03-16T06:24:39.576Z,4.16
2018-03-16T06:27:07.960Z,4.05
2018-03-16T06:29:36.366Z,3.96
2018-03-16T06:32:04.727Z,3.98
2018-03-16T06:34:33.082Z,3.94
2018-03-16T06:37:01.440Z,3.93
2018-03-16T06:39:29.913Z,3.89
2018-03-16T06:41:58.261Z,3.85
2018-03-16T06:44:26.740Z,3.79
2018-03-16T06:46:55.109Z,3.82
2018-03-16T06:49:23.513Z,3.77
2018-03-16T06:51:52.025Z,3.72
2018-03-16T06:54:20.980Z,3.67
2018-03-16T06:56:49.346Z,3.65
2018-03-16T06:59:17.802Z,3.63
2018-03-16T07:01:46.156Z,3.61
2018-03-16T07:04:14.515Z,3.59
2018-03-16T07:06:42.939Z,3.53
2018-03-16T07:09:12.158Z,3.59
2018-03-16T07:11:40.568Z,3.57
2018-03-16T07:14:08.924Z,3.60
2018-03-16T07:16:37.363Z,3.62
2018-03-16T07:19:05.733Z,3.65
2018-03-16T07:21:34.111Z,3.68
2018-03-16T07:24:02.464Z,3.71
2018-03-16T07:26:30.823Z,3.71
2018-03-16T07:28:59.237Z,3.71
2018-03-16T07:31:27.615Z,3.75
2018-03-16T07:33:55.967Z,3.77
2018-03-16T07:36:24.477Z,3.72
2018-03-16T07:38:52.839Z,3.71
2018-03-16T07:41:21.448Z,3.74
2018-03-16T07:43:49.823Z,3.72
2018-03-16T07:46:18.187Z,3.67
2018-03-16T07:48:46.589Z,3.67
2018-03-16T07:51:15.024Z,3.65
2018-03-16T07:53:43.394Z,3.64
2018-03-16T07:56:11.817Z,3.71
2018-03-16T07:58:40.213Z,3.76
2018-03-16T08:01:08.632Z,3.77
2018-03-16T08:03:36.997Z,3.84
2018-03-16T08:06:05.346Z,3.89
2018-03-16T08:08:33.703Z,3.87
2018-03-16T08:11:02.046Z,3.86
2018-03-16T08:13:30.460Z,3.86
2018-03-16T08:15:58.812Z,3.91
2018-03-16T08:18:27.227Z,3.92
2018-03-16T08:20:55.580Z,3.97
2018-03-16T08:23:24.041Z,3.97
2018-03-16T08:25:52.421Z,3.88
2018-03-16T08:28:20.796Z,3.93
2018-03-16T08:30:49.193Z,3.91
2018-03-16T08:33:17.598Z,3.88
2018-03-16T08:35:45.953Z,3.82
2018-03-16T08:38:14.328Z,3.80
2018-03-16T08:40:42.762Z,3.74
2018-03-16T08:43:11.270Z,3.75
2018-03-16T08:45:39.649Z,3.79
2018-03-16T08:48:08.048Z,3.74
2018-03-16T08:50:36.448Z,3.79
2018-03-16T08:53:04.836Z,3.82
2018-03-16T08:55:33.196Z,3.75
2018-03-16T08:58:01.593Z,3.76
2018-03-16T09:00:30.015Z,3.69
2018-03-16T09:02:58.356Z,3.59
2018-03-16T09:05:26.749Z,3.47
2018-03-16T09:07:55.192Z,3.45
2018-03-16T09:10:23.742Z,3.39
2018-03-16T09:12:52.184Z,3.46
2018-03-16T09:15:20.576Z,3.55
2018-03-16T09:17:49.144Z,3.54
2018-03-16T09:20:17.515Z,3.43
2018-03-16T09:22:45.873Z,3.35
2018-03-16T09:25:14.375Z,3.31
2018-03-16T09:27:42.837Z,3.31
2018-03-16T09:30:11.178Z,3.22
2018-03-16T09:32:39.577Z,3.26
2018-03-16T09:35:07.972Z,3.22
2018-03-16T09:37:36.419Z,3.24
2018-03-16T09:40:04.822Z,3.27
2018-03-16T09:42:33.167Z,3.31
2018-03-16T09:45:01.568Z,3.19
2018-03-16T09:47:29.924Z,3.13
2018-03-16T09:49:58.313Z,3.07
2018-03-16T09:52:26.693Z,3.06
2018-03-16T09:55:06.938Z,2.90
2018-03-16T09:57:35.381Z,2.93
2018-03-16T10:00:03.740Z,2.83
2018-03-16T10:02:32.117Z,2.91
2018-03-16T10:05:00.596Z,2.88
2018-03-16T10:07:28.977Z,2.82
2018-03-16T10:09:57.387Z,2.80
2018-03-16T10:12:25.848Z,2.89
2018-03-16T10:14:54.224Z,2.79
2018-03-16T10:17:22.611Z,2.64
2018-03-16T10:19:51.000Z,2.60
2018-03-16T10:22:19.344Z,2.63
2018-03-16T10:24:47.724Z,2.52
2018-03-16T10:27:16.137Z,2.45
2018-03-16T10:29:44.619Z,2.45
2018-03-16T10:32:13.026Z,2.45
2018-03-16T10:34:41.379Z,2.44
2018-03-16T10:37:10.014Z,2.55
2018-03-16T10:39:38.375Z,2.56
2018-03-16T10:42:06.770Z,2.59
2018-03-16T10:44:35.175Z,2.55
2018-03-16T10:47:03.517Z,2.50
2018-03-16T10:49:31.900Z,2.39
2018-03-16T10:52:00.529Z,2.35
2018-03-16T10:54:28.901Z,2.41
2018-03-16T10:56:57.285Z,2.45
2018-03-16T10:59:25.652Z,2.46
2018-03-16T11:01:55.971Z,2.40
2018-03-16T11:04:35.205Z,2.41
2018-03-16T11:07:09.150Z,2.37
2018-03-16T11:09:37.518Z,2.44
2018-03-16T11:12:05.938Z,2.44
2018-03-16T11:14:34.286Z,2.53
2018-03-16T11:17:02.651Z,2.47
2018-03-16T11:19:31.014Z,2.47
2018-03-16T11:21:59.600Z,2.58
2018-03-16T11:24:28.101Z,2.62
2018-03-16T11:26:56.469Z,2.65
2018-03-16T11:29:24.903Z,2.68
2018-03-16T11:31:53.273Z,2.64
2018-03-16T11:34:21.654Z,2.59
2018-03-16T11:36:50.059Z,2.57
2018-03-16T11:39:18.443Z,2.49
2018-03-16T11:41:46.844Z,2.56
2018-03-16T11:44:15.212Z,2.60
2018-03-16T11:46:43.579Z,2.63
2018-03-16T11:49:11.962Z,2.69
2018-03-16T11:51:40.369Z,2.55
2018-03-16T11:54:08.748Z,2.64
2018-03-16T11:56:37.123Z,2.50
2018-03-16T11:59:05.482Z,2.16
2018-03-16T12:01:33.850Z,2.05
2018-03-16T12:04:02.270Z,1.95
2018-03-16T12:06:30.633Z,1.97
2018-03-16T12:08:58.980Z,2.03
2018-03-16T12:11:27.455Z,2.09
2018-03-16T12:13:55.833Z,2.13
2018-03-16T12:16:24.222Z,2.15
2018-03-16T12:18:52.635Z,2.04
2018-03-16T12:21:21.760Z,2.06
2018-03-16T12:23:50.130Z,2.05
2018-03-16T12:26:18.519Z,2.06
2018-03-16T12:28:49.951Z,2.06
2018-03-16T12:31:15.340Z,2.06
2018-03-16T12:33:43.789Z,2.00
2018-03-16T12:36:12.159Z,1.91
2018-03-16T12:38:40.516Z,1.95
2018-03-16T12:41:08.924Z,1.90
2018-03-16T12:43:37.381Z,1.86
2018-03-16T12:46:06.351Z,1.75
2018-03-16T12:48:34.738Z,1.74
2018-03-16T12:51:03.105Z,1.67
2018-03-16T12:53:31.511Z,1.54
2018-03-16T12:55:59.907Z,1.54
2018-03-16T12:58:28.278Z,1.47
2018-03-16T13:00:56.632Z,1.48
2018-03-16T13:03:24.991Z,1.38
2018-03-16T13:05:53.827Z,1.40
2018-03-16T13:08:22.216Z,1.43
2018-03-16T13:10:50.566Z,1.35
2018-03-16T13:13:18.925Z,1.34
2018-03-16T13:15:47.454Z,1.30
2018-03-16T13:18:15.836Z,1.33
2018-03-16T13:20:44.185Z,1.32
2018-03-16T13:23:12.659Z,1.40
2018-03-16T13:25:41.077Z,1.41
2018-03-16T13:28:09.477Z,1.31
2018-03-16T13:30:37.874Z,1.27
2018-03-16T13:33:06.255Z,1.26
2018-03-16T13:35:34.650Z,1.25
2018-03-16T13:38:03.026Z,1.24
2018-03-16T13:40:31.590Z,1.20
2018-03-16T13:43:00.013Z,1.19
2018-03-16T13:45:28.663Z,1.17
2018-03-16T13:47:57.026Z,1.09
2018-03-16T13:50:25.380Z,1.07
2018-03-16T13:52:53.764Z,1.07
2018-03-16T13:55:22.128Z,1.03
2018-03-16T13:57:50.533Z,1.09
2018-03-16T14:00:18.905Z,1.13
2018-03-16T14:02:47.359Z,1.12
2018-03-16T14:05:15.751Z,1.15
2018-03-16T14:07:44.149Z,1.18
2018-03-16T14:10:12.553Z,1.14
2018-03-16T14:12:40.938Z,1.23
2018-03-16T14:15:09.326Z,1.21
2018-03-16T14:17:37.700Z,1.17
2018-03-16T14:20:06.253Z,1.15
2018-03-16T14:22:34.584Z,1.16
2018-03-16T14:25:02.960Z,1.03
2018-03-16T14:27:31.327Z,0.93
2018-03-16T14:29:59.685Z,0.93
2018-03-16T14:32:28.052Z,0.83
2018-03-16T14:34:56.461Z,0.90
2018-03-16T14:37:24.826Z,0.82
2018-03-16T14:39:53.194Z,0.83
2018-03-16T14:42:21.555Z,0.82
2018-03-16T14:44:49.921Z,0.79
2018-03-16T14:47:18.281Z,0.80
2018-03-16T14:49:46.733Z,0.76
2018-03-16T14:52:15.200Z,0.75
2018-03-16T14:54:43.642Z,0.90
2018-03-16T14:57:12.037Z,0.90
2018-03-16T14:59:40.485Z,0.89
2018-03-16T15:02:09.010Z,0.91
2018-03-16T15:04:37.404Z,0.85
2018-03-16T15:07:05.766Z,0.83
2018-03-16T15:09:34.119Z,0.79
2018-03-16T15:12:02.473Z,0.80
2018-03-16T15:14:30.823Z,0.79
2018-03-16T15:16:59.322Z,0.77
2018-03-16T15:19:27.673Z,0.73
2018-03-16T15:21:56.120Z,0.83
2018-03-16T15:24:24.859Z,0.80
2018-03-16T15:26:53.300Z,0.81
2018-03-16T15:29:21.622Z,0.81
2018-03-16T15:31:49.952Z,0.81
2018-03-16T15:34:18.303Z,0.79
2018-03-16T15:36:46.734Z,0.79
2018-03-16T15:39:15.112Z,0.61
2018-03-16T15:41:43.445Z,0.62
2018-03-16T15:44:11.767Z,0.53
2018-03-16T15:46:40.089Z,0.56
2018-03-16T15:49:08.477Z,0.52
2018-03-16T15:51:36.825Z,0.50
2018-03-16T15:54:05.157Z,0.53
2018-03-16T15:56:33.567Z,0.46
2018-03-16T15:59:01.923Z,0.44
2018-03-16T16:01:30.350Z,0.41
2018-03-16T16:03:58.681Z,0.42
2018-03-16T16:06:27.006Z,0.47
2018-03-16T16:08:55.337Z,0.43
2018-03-16T16:11:23.656Z,0.45
2018-03-16T16:13:51.978Z,0.44
2018-03-16T16:16:20.308Z,0.42
2018-03-16T16:18:48.629Z,0.45
2018-03-16T16:21:16.964Z,0.42
2018-03-16T16:23:45.311Z,0.48
2018-03-16T16:26:13.618Z,0.41
2018-03-16T16:28:42.055Z,0.38
2018-03-16T16:31:10.394Z,0.35
2018-03-16T16:33:38.936Z,0.34
2018-03-16T16:36:07.376Z,0.41
2018-03-16T16:38:35.725Z,0.28
2018-03-16T16:41:04.060Z,0.26
2018-03-16T16:43:32.451Z,0.30
2018-03-16T16:46:00.765Z,0.27
2018-03-16T16:48:29.090Z,0.19
2018-03-16T16:50:57.421Z,0.17
2018-03-16T16:53:25.763Z,0.09
2018-03-16T16:55:54.093Z,0.03
2018-03-16T16:58:22.438Z,0.02
2018-03-16T17:00:50.777Z,0.04
2018-03-16T17:03:19.118Z,0.07
2018-03-16T17:05:47.450Z,0.12
2018-03-16T17:08:15.780Z,0.11
2018-03-16T17:10:44.102Z,0.09
2018-03-16T17:13:12.439Z,0.04
2018-03-16T17:15:40.779Z,-0.02
2018-03-16T17:18:09.206Z,0.04
2018-03-16T17:20:37.614Z,-0.08
2018-03-16T17:23:06.107Z,-0.05
2018-03-16T17:25:34.655Z,-0.07
2018-03-16T17:28:03.049Z,-0.14
2018-03-16T17:30:31.404Z,-0.14
2018-03-16T17:32:59.738Z,-0.13
2018-03-16T17:35:28.091Z,-0.12
2018-03-16T17:37:56.432Z,-0.09
2018-03-16T17:40:24.776Z,-0.13
2018-03-16T17:42:53.209Z,-0.09
2018-03-16T17:45:21.581Z,-0.09
2018-03-16T17:47:49.933Z,-0.14
2018-03-16T17:50:18.267Z,-0.17
2018-03-16T17:52:46.603Z,-0.21
2018-03-16T17:55:14.985Z,-0.22
2018-03-16T17:57:43.362Z,-0.18
2018-03-16T18:00:11.702Z,-0.22
2018-03-16T18:02:40.101Z,-0.19
2018-03-16T18:05:08.544Z,-0.19
2018-03-16T18:07:36.920Z,-0.18
2018-03-16T18:10:05.267Z,-0.27
2018-03-16T18:12:33.745Z,-0.21
2018-03-16T18:15:02.105Z,-0.21
2018-03-16T18:17:30.434Z,-0.16
2018-03-16T18:19:59.096Z,-0.19
2018-03-16T18:22:27.492Z,-0.15
2018-03-16T18:24:55.829Z,-0.18
2018-03-16T18:27:24.178Z,-0.24
2018-03-16T18:29:52.691Z,-0.22
2018-03-16T18:32:21.041Z,-0.30
2018-03-16T18:34:49.443Z,-0.28
2018-03-16T18:37:17.869Z,-0.26
2018-03-16T18:39:46.189Z,-0.23
2018-03-16T18:42:14.552Z,-0.25
2018-03-16T18:44:42.890Z,-0.22
2018-03-16T18:47:14.053Z,-0.20
2018-03-16T18:49:42.382Z,-0.25
2018-03-16T18:52:10.923Z,-0.23
2018-03-16T18:54:39.263Z,-0.20
2018-03-16T18:57:07.646Z,-0.16
2018-03-16T18:59:36.134Z,-0.24
2018-03-16T19:02:04.469Z,-0.28
2018-03-16T19:04:32.855Z,-0.38
2018-03-16T19:07:01.213Z,-0.41
2018-03-16T19:09:29.549Z,-0.37
2018-03-16T19:11:57.883Z,-0.40
2018-03-16T19:14:26.235Z,-0.36
2018-03-16T19:16:54.596Z,-0.44
2018-03-16T19:19:22.940Z,-0.38
2018-03-16T19:21:51.303Z,-0.02
2018-03-16T19:24:19.757Z,-0.23
2018-03-16T19:26:48.087Z,-0.32
2018-03-16T19:29:16.472Z,-0.33
2018-03-16T19:31:44.791Z,-0.38
2018-03-16T19:34:13.156Z,-0.56
2018-03-16T19:36:41.498Z,-0.59
2018-03-16T19:39:09.888Z,-0.58
2018-03-16T19:41:38.344Z,-0.57
2018-03-16T19:44:06.810Z,-0.57
2018-03-16T19:46:35.165Z,-0.59
2018-03-16T19:49:03.849Z,-0.71
2018-03-16T19:51:33.143Z,-0.61
2018-03-16T19:54:01.489Z,-0.62
2018-03-16T19:56:29.839Z,-0.63
2018-03-16T19:58:58.167Z,-0.65
2018-03-16T20:01:26.495Z,-0.63
2018-03-16T20:03:54.826Z,-0.67
2018-03-16T20:06:23.149Z,-0.65
2018-03-16T20:08:51.514Z,-0.64
2018-03-16T20:11:19.888Z,-0.61
2018-03-16T20:13:48.218Z,-0.60
2018-03-16T20:16:16.597Z,-0.55
2018-03-16T20:18:44.941Z,-0.58
2018-03-16T20:21:13.292Z,-0.55
2018-03-16T20:23:41.616Z,-0.52
2018-03-16T20:26:10.174Z,-0.47
2018-03-16T20:28:38.519Z,-0.43
2018-03-16T20:31:07.026Z,-0.45
2018-03-16T20:33:35.363Z,-0.48
2018-03-16T20:36:03.681Z,-0.44
2018-03-16T20:38:32.020Z,-0.48
2018-03-16T20:41:00.465Z,-0.51
2018-03-16T20:43:28.802Z,-0.53
2018-03-16T20:45:57.191Z,-0.46
2018-03-16T20:48:25.650Z,-0.49
2018-03-16T20:50:53.992Z,-0.47
2018-03-16T20:53:22.388Z,-0.52
2018-03-16T20:55:50.730Z,-0.49
2018-03-16T20:58:19.075Z,-0.50
2018-03-16T21:00:47.409Z,-0.53
2018-03-16T21:03:15.746Z,-0.57
2018-03-16T21:05:44.092Z,-0.62
2018-03-16T21:08:12.574Z,-0.69
2018-03-16T21:10:40.940Z,-0.70
2018-03-16T21:13:09.301Z,-0.78
2018-03-16T21:15:37.730Z,-0.79
2018-03-16T21:18:06.264Z,-0.81
2018-03-16T21:20:34.605Z,-0.87
2018-03-16T21:23:02.967Z,-0.87
2018-03-16T21:25:31.276Z,-0.90
2018-03-16T21:27:59.651Z,-0.90
2018-03-16T21:30:28.011Z,-0.96
2018-03-16T21:32:56.340Z,-0.97
2018-03-16T21:35:24.667Z,-0.97
2018-03-16T21:37:53.015Z,-0.99
2018-03-16T21:40:21.484Z,-0.99
2018-03-16T21:42:49.841Z,-0.99
2018-03-16T21:45:18.207Z,-0.98
2018-03-16T21:47:46.534Z,-1.05
2018-03-16T21:50:14.888Z,-1.02
2018-03-16T21:52:43.207Z,-1.03
2018-03-16T21:55:11.541Z,-1.02
2018-03-16T21:57:39.863Z,-1.09
2018-03-16T22:00:08.275Z,-1.13
2018-03-16T22:02:36.599Z,-1.13
2018-03-16T22:05:04.919Z,-1.14
2018-03-16T22:07:33.328Z,-1.11
2018-03-16T22:10:01.731Z,-1.17
2018-03-16T22:12:30.058Z,-1.16
2018-03-16T22:14:58.464Z,-1.13
2018-03-16T22:17:26.793Z,-1.13
2018-03-16T22:19:55.158Z,-1.12
2018-03-16T22:22:23.503Z,-1.13
2018-03-16T22:24:51.868Z,-1.16
2018-03-16T22:27:20.194Z,-1.06
2018-03-16T22:29:49.351Z,-1.16
2018-03-16T22:32:17.769Z,-1.14
2018-03-16T22:34:46.148Z,-1.24
2018-03-16T22:37:14.638Z,-1.26
2018-03-16T22:39:43.000Z,-1.27
2018-03-16T22:42:11.406Z,-1.24
2018-03-16T22:44:39.797Z,-1.21
2018-03-16T22:47:08.130Z,-1.25
2018-03-16T22:49:36.487Z,-1.26
2018-03-16T22:52:04.807Z,-1.25
2018-03-16T22:54:33.184Z,-1.31
2018-03-16T22:57:01.533Z,-1.38
2018-03-16T22:59:30.219Z,-1.42
2018-03-16T23:01:58.552Z,-1.50
2018-03-16T23:04:26.908Z,-1.58
2018-03-16T23:06:55.301Z,-1.53
2018-03-16T23:09:23.634Z,-1.59
2018-03-16T23:11:52.159Z,-1.61
2018-03-16T23:14:20.507Z,-1.66
2018-03-16T23:16:48.852Z,-1.71
2018-03-16T23:19:17.174Z,-1.71
2018-03-16T23:21:45.613Z,-1.68
2018-03-16T23:24:13.951Z,-1.78
2018-03-16T23:26:42.291Z,-1.85
2018-03-16T23:29:10.645Z,-1.91
2018-03-16T23:31:39.000Z,-1.86
2018-03-16T23:34:08.396Z,-1.95
2018-03-16T23:36:36.790Z,-2.01
2018-03-16T23:39:05.160Z,-2.00
2018-03-16T23:41:33.485Z,-2.03
2018-03-16T23:44:01.853Z,-1.97
2018-03-16T23:46:30.236Z,-2.00
2018-03-16T23:48:58.572Z,-2.06
2018-03-16T23:51:26.924Z,-2.00
2018-03-16T23:53:55.268Z,-2.08
2018-03-16T23:56:23.599Z,-2.10
2018-03-16T23:58:51.914Z,-2.13
